sensor_id;sensor_type;location;lat;lon;timestamp;pressure;altitude;pressure_sealevel;temperature;humidity
19259;BME280;9763;48.780;9.212;2023-04-06T00:00:13;98638.44;;;7.63;39.92
19259;BME280;9763;48.780;9.212;2023-04-06T00:03:40;98635.19;;;7.59;39.90
19259;BME280;9763;48.780;9.212;2023-04-06T00:07:05;98635.41;;;7.55;39.95
19259;BME280;9763;48.780;9.212;2023-04-06T00:10:31;98640.81;;;7.50;40.13
19259;BME280;9763;48.780;9.212;2023-04-06T00:13:58;98628.28;;;7.41;40.09
19259;BME280;9763;48.780;9.212;2023-04-06T00:17:23;98630.81;;;7.43;39.99
19259;BME280;9763;48.780;9.212;2023-04-06T00:20:49;98632.63;;;7.41;40.09
19259;BME280;9763;48.780;9.212;2023-04-06T00:24:14;98631.84;;;7.39;40.16
19259;BME280;9763;48.780;9.212;2023-04-06T00:27:39;98631.19;;;7.35;40.26
19259;BME280;9763;48.780;9.212;2023-04-06T00:31:05;98636.50;;;7.32;39.98
19259;BME280;9763;48.780;9.212;2023-04-06T00:34:28;98630.69;;;7.27;40.45
19259;BME280;9763;48.780;9.212;2023-04-06T00:37:52;98621.47;;;7.21;40.39
19259;BME280;9763;48.780;9.212;2023-04-06T00:41:18;98629.06;;;7.24;40.23
19259;BME280;9763;48.780;9.212;2023-04-06T00:44:43;98629.84;;;7.27;40.31
19259;BME280;9763;48.780;9.212;2023-04-06T00:48:09;98629.63;;;7.31;40.52
19259;BME280;9763;48.780;9.212;2023-04-06T00:51:33;98619.19;;;7.33;40.46
19259;BME280;9763;48.780;9.212;2023-04-06T00:54:57;98617.44;;;7.33;40.29
19259;BME280;9763;48.780;9.212;2023-04-06T00:58:23;98617.50;;;7.32;40.65
19259;BME280;9763;48.780;9.212;2023-04-06T01:01:55;98616.81;;;7.28;40.84
19259;BME280;9763;48.780;9.212;2023-04-06T01:05:49;98611.00;;;7.23;41.03
19259;BME280;9763;48.780;9.212;2023-04-06T01:09:21;98613.75;;;7.20;40.79
19259;BME280;9763;48.780;9.212;2023-04-06T01:12:47;98615.63;;;7.16;41.18
19259;BME280;9763;48.780;9.212;2023-04-06T01:16:19;98609.91;;;7.10;40.84
19259;BME280;9763;48.780;9.212;2023-04-06T01:19:56;98608.50;;;7.03;41.20
19259;BME280;9763;48.780;9.212;2023-04-06T01:23:26;98596.69;;;6.97;40.88
19259;BME280;9763;48.780;9.212;2023-04-06T01:26:50;98603.81;;;6.92;41.00
19259;BME280;9763;48.780;9.212;2023-04-06T01:30:14;98599.72;;;6.88;41.17
19259;BME280;9763;48.780;9.212;2023-04-06T01:33:46;98602.38;;;6.86;40.94
19259;BME280;9763;48.780;9.212;2023-04-06T01:37:13;98593.03;;;6.82;41.61
19259;BME280;9763;48.780;9.212;2023-04-06T01:40:38;98596.56;;;6.81;41.33
19259;BME280;9763;48.780;9.212;2023-04-06T01:44:02;98595.00;;;6.77;41.48
19259;BME280;9763;48.780;9.212;2023-04-06T01:47:27;98592.66;;;6.73;41.51
19259;BME280;9763;48.780;9.212;2023-04-06T01:50:56;98593.63;;;6.70;41.76
19259;BME280;9763;48.780;9.212;2023-04-06T01:54:25;98588.50;;;6.69;41.67
19259;BME280;9763;48.780;9.212;2023-04-06T01:57:59;98590.31;;;6.67;41.49
19259;BME280;9763;48.780;9.212;2023-04-06T02:01:29;98585.38;;;6.62;41.38
19259;BME280;9763;48.780;9.212;2023-04-06T02:04:53;98583.94;;;6.55;41.80
19259;BME280;9763;48.780;9.212;2023-04-06T02:08:17;98579.97;;;6.48;41.85
19259;BME280;9763;48.780;9.212;2023-04-06T02:11:41;98584.50;;;6.43;41.56
19259;BME280;9763;48.780;9.212;2023-04-06T02:15:09;98588.06;;;6.40;41.99
19259;BME280;9763;48.780;9.212;2023-04-06T02:18:33;98582.28;;;6.35;41.89
19259;BME280;9763;48.780;9.212;2023-04-06T02:21:57;98584.16;;;6.32;41.78
19259;BME280;9763;48.780;9.212;2023-04-06T02:25:21;98576.59;;;6.27;41.63
19259;BME280;9763;48.780;9.212;2023-04-06T02:28:45;98581.97;;;6.23;42.07
19259;BME280;9763;48.780;9.212;2023-04-06T02:32:10;98572.81;;;6.16;41.97
19259;BME280;9763;48.780;9.212;2023-04-06T02:35:34;98576.16;;;6.18;42.35
19259;BME280;9763;48.780;9.212;2023-04-06T02:38:58;98577.06;;;6.17;42.24
19259;BME280;9763;48.780;9.212;2023-04-06T02:42:23;98575.41;;;6.16;42.39
19259;BME280;9763;48.780;9.212;2023-04-06T02:45:48;98571.97;;;6.15;42.33
19259;BME280;9763;48.780;9.212;2023-04-06T02:49:15;98568.59;;;6.13;42.70
19259;BME280;9763;48.780;9.212;2023-04-06T02:52:40;98570.34;;;6.12;42.61
19259;BME280;9763;48.780;9.212;2023-04-06T02:56:06;98567.75;;;6.12;42.64
19259;BME280;9763;48.780;9.212;2023-04-06T02:59:39;98567.75;;;6.12;42.59
19259;BME280;9763;48.780;9.212;2023-04-06T03:03:09;98573.78;;;6.13;42.31
19259;BME280;9763;48.780;9.212;2023-04-06T03:06:36;98567.81;;;6.11;42.56
19259;BME280;9763;48.780;9.212;2023-04-06T03:10:09;98565.34;;;6.08;42.61
19259;BME280;9763;48.780;9.212;2023-04-06T03:13:34;98569.81;;;6.04;42.81
19259;BME280;9763;48.780;9.212;2023-04-06T03:16:58;98567.34;;;6.03;42.81
19259;BME280;9763;48.780;9.212;2023-04-06T03:20:22;98564.88;;;6.00;42.90
19259;BME280;9763;48.780;9.212;2023-04-06T03:23:47;98568.31;;;6.00;42.57
19259;BME280;9763;48.780;9.212;2023-04-06T03:27:13;98570.03;;;6.00;42.63
19259;BME280;9763;48.780;9.212;2023-04-06T03:30:39;98571.03;;;5.97;43.00
19259;BME280;9763;48.780;9.212;2023-04-06T03:34:03;98572.03;;;5.93;42.45
19259;BME280;9763;48.780;9.212;2023-04-06T03:37:29;98577.44;;;5.89;42.84
19259;BME280;9763;48.780;9.212;2023-04-06T03:40:58;98574.09;;;5.85;42.92
19259;BME280;9763;48.780;9.212;2023-04-06T03:44:23;98574.22;;;5.82;43.06
19259;BME280;9763;48.780;9.212;2023-04-06T03:47:47;98580.41;;;5.79;43.05
19259;BME280;9763;48.780;9.212;2023-04-06T03:51:11;98580.47;;;5.78;42.94
19259;BME280;9763;48.780;9.212;2023-04-06T03:54:36;98579.69;;;5.76;42.82
19259;BME280;9763;48.780;9.212;2023-04-06T03:58:01;98585.72;;;5.76;43.08
19259;BME280;9763;48.780;9.212;2023-04-06T04:01:25;98580.59;;;5.75;43.06
19259;BME280;9763;48.780;9.212;2023-04-06T04:04:49;98586.75;;;5.72;43.04
19259;BME280;9763;48.780;9.212;2023-04-06T04:08:13;98584.34;;;5.68;43.15
19259;BME280;9763;48.780;9.212;2023-04-06T04:11:37;98591.34;;;5.66;43.13
19259;BME280;9763;48.780;9.212;2023-04-06T04:15:03;98591.41;;;5.64;43.28
19259;BME280;9763;48.780;9.212;2023-04-06T04:18:27;98594.97;;;5.62;43.64
19259;BME280;9763;48.780;9.212;2023-04-06T04:21:51;98593.41;;;5.58;43.15
19259;BME280;9763;48.780;9.212;2023-04-06T04:25:23;98601.31;;;5.55;43.42
19259;BME280;9763;48.780;9.212;2023-04-06T04:28:48;98596.31;;;5.50;43.23
19259;BME280;9763;48.780;9.212;2023-04-06T04:32:13;98609.31;;;5.49;43.50
19259;BME280;9763;48.780;9.212;2023-04-06T04:35:38;98605.94;;;5.47;43.61
19259;BME280;9763;48.780;9.212;2023-04-06T04:39:04;98603.41;;;5.45;43.64
19259;BME280;9763;48.780;9.212;2023-04-06T04:42:33;98603.41;;;5.45;43.53
19259;BME280;9763;48.780;9.212;2023-04-06T04:45:59;98597.41;;;5.44;43.45
19259;BME280;9763;48.780;9.212;2023-04-06T04:49:33;98600.13;;;5.41;43.44
19259;BME280;9763;48.780;9.212;2023-04-06T04:52:58;98600.00;;;5.44;43.81
19259;BME280;9763;48.780;9.212;2023-04-06T04:56:22;98605.09;;;5.46;43.42
19259;BME280;9763;48.780;9.212;2023-04-06T04:59:52;98606.78;;;5.47;43.75
19259;BME280;9763;48.780;9.212;2023-04-06T05:03:23;98596.66;;;5.42;43.29
19259;BME280;9763;48.780;9.212;2023-04-06T05:07:06;98606.69;;;5.50;43.83
19259;BME280;9763;48.780;9.212;2023-04-06T05:10:33;98615.78;;;5.59;43.91
19259;BME280;9763;48.780;9.212;2023-04-06T05:13:59;98609.47;;;5.66;43.93
19259;BME280;9763;48.780;9.212;2023-04-06T05:17:24;98615.28;;;5.71;43.92
19259;BME280;9763;48.780;9.212;2023-04-06T05:20:48;98615.16;;;5.74;44.08
19259;BME280;9763;48.780;9.212;2023-04-06T05:24:14;98619.25;;;5.79;44.09
19259;BME280;9763;48.780;9.212;2023-04-06T05:27:40;98620.63;;;5.88;43.94
19259;BME280;9763;48.780;9.212;2023-04-06T05:31:19;98626.38;;;5.95;44.05
19259;BME280;9763;48.780;9.212;2023-04-06T05:34:45;98631.16;;;6.04;44.06
19259;BME280;9763;48.780;9.212;2023-04-06T05:38:09;98630.84;;;6.11;44.19
19259;BME280;9763;48.780;9.212;2023-04-06T05:41:35;98617.06;;;6.11;43.84
19259;BME280;9763;48.780;9.212;2023-04-06T05:44:59;98631.22;;;6.41;44.04
19259;BME280;9763;48.780;9.212;2023-04-06T05:48:23;98633.22;;;6.74;43.87
19259;BME280;9763;48.780;9.212;2023-04-06T05:51:49;98635.75;;;7.30;44.19
19259;BME280;9763;48.780;9.212;2023-04-06T05:55:13;98621.69;;;7.86;43.84
19259;BME280;9763;48.780;9.212;2023-04-06T05:58:43;98623.94;;;8.26;43.44
19259;BME280;9763;48.780;9.212;2023-04-06T06:02:10;98623.69;;;8.48;43.34
19259;BME280;9763;48.780;9.212;2023-04-06T06:05:38;98628.66;;;8.53;43.03
19259;BME280;9763;48.780;9.212;2023-04-06T06:09:06;98628.38;;;8.57;43.58
19259;BME280;9763;48.780;9.212;2023-04-06T06:12:36;98634.72;;;8.69;42.92
19259;BME280;9763;48.780;9.212;2023-04-06T06:16:03;98638.84;;;9.05;43.50
19259;BME280;9763;48.780;9.212;2023-04-06T06:19:31;98635.66;;;10.05;44.37
19259;BME280;9763;48.780;9.212;2023-04-06T06:22:58;98631.06;;;11.22;44.86
19259;BME280;9763;48.780;9.212;2023-04-06T06:26:22;98633.38;;;12.44;44.82
19259;BME280;9763;48.780;9.212;2023-04-06T06:29:46;98629.03;;;13.65;44.65
19259;BME280;9763;48.780;9.212;2023-04-06T06:33:11;98618.75;;;14.76;44.49
19259;BME280;9763;48.780;9.212;2023-04-06T06:36:35;98626.16;;;15.80;43.70
19259;BME280;9763;48.780;9.212;2023-04-06T06:40:02;98618.16;;;16.84;43.15
19259;BME280;9763;48.780;9.212;2023-04-06T06:43:28;98618.72;;;17.76;43.18
19259;BME280;9763;48.780;9.212;2023-04-06T06:46:58;98613.97;;;18.64;42.55
19259;BME280;9763;48.780;9.212;2023-04-06T06:50:23;98617.72;;;19.44;41.45
19259;BME280;9763;48.780;9.212;2023-04-06T06:53:47;98618.19;;;20.19;41.34
19259;BME280;9763;48.780;9.212;2023-04-06T06:57:11;98622.28;;;20.91;40.27
19259;BME280;9763;48.780;9.212;2023-04-06T07:00:35;98615.22;;;21.58;40.15
19259;BME280;9763;48.780;9.212;2023-04-06T07:03:59;98619.06;;;22.12;38.80
19259;BME280;9763;48.780;9.212;2023-04-06T07:07:25;98619.28;;;22.66;38.34
19259;BME280;9763;48.780;9.212;2023-04-06T07:10:50;98613.91;;;23.21;38.41
19259;BME280;9763;48.780;9.212;2023-04-06T07:14:15;98620.63;;;23.70;37.66
19259;BME280;9763;48.780;9.212;2023-04-06T07:17:39;98608.63;;;24.12;36.54
19259;BME280;9763;48.780;9.212;2023-04-06T07:21:04;98613.59;;;24.53;36.68
19259;BME280;9763;48.780;9.212;2023-04-06T07:24:29;98609.28;;;24.96;36.25
19259;BME280;9763;48.780;9.212;2023-04-06T07:27:53;98615.53;;;25.39;35.57
19259;BME280;9763;48.780;9.212;2023-04-06T07:31:17;98614.34;;;25.77;35.27
19259;BME280;9763;48.780;9.212;2023-04-06T07:34:41;98611.19;;;26.16;34.99
19259;BME280;9763;48.780;9.212;2023-04-06T07:38:08;98610.69;;;26.62;33.62
19259;BME280;9763;48.780;9.212;2023-04-06T07:41:33;98605.69;;;26.87;33.48
19259;BME280;9763;48.780;9.212;2023-04-06T07:44:57;98602.56;;;27.24;33.21
19259;BME280;9763;48.780;9.212;2023-04-06T07:48:21;98609.00;;;27.43;32.80
19259;BME280;9763;48.780;9.212;2023-04-06T07:51:44;98604.16;;;27.60;32.57
19259;BME280;9763;48.780;9.212;2023-04-06T07:55:08;98613.69;;;27.89;31.87
19259;BME280;9763;48.780;9.212;2023-04-06T07:58:34;98600.06;;;28.30;31.25
19259;BME280;9763;48.780;9.212;2023-04-06T08:01:57;98595.66;;;28.68;30.77
19259;BME280;9763;48.780;9.212;2023-04-06T08:05:21;98594.94;;;29.06;30.46
19259;BME280;9763;48.780;9.212;2023-04-06T08:08:45;98597.69;;;29.44;30.32
19259;BME280;9763;48.780;9.212;2023-04-06T08:12:09;98593.47;;;29.86;30.29
19259;BME280;9763;48.780;9.212;2023-04-06T08:15:34;98594.38;;;30.30;29.68
19259;BME280;9763;48.780;9.212;2023-04-06T08:18:58;98599.69;;;30.61;28.96
19259;BME280;9763;48.780;9.212;2023-04-06T08:22:21;98596.16;;;30.97;29.04
19259;BME280;9763;48.780;9.212;2023-04-06T08:25:45;98599.28;;;31.31;28.24
19259;BME280;9763;48.780;9.212;2023-04-06T08:29:09;98602.75;;;31.68;27.75
19259;BME280;9763;48.780;9.212;2023-04-06T08:32:35;98598.34;;;31.97;27.26
19259;BME280;9763;48.780;9.212;2023-04-06T08:35:59;98593.06;;;32.13;27.31
19259;BME280;9763;48.780;9.212;2023-04-06T08:39:22;98599.22;;;32.20;27.09
19259;BME280;9763;48.780;9.212;2023-04-06T08:42:54;98599.47;;;32.42;26.17
19259;BME280;9763;48.780;9.212;2023-04-06T08:46:18;98582.75;;;32.69;25.96
19259;BME280;9763;48.780;9.212;2023-04-06T08:49:44;98578.41;;;32.79;25.42
19259;BME280;9763;48.780;9.212;2023-04-06T08:53:09;98584.03;;;32.89;25.75
19259;BME280;9763;48.780;9.212;2023-04-06T08:56:38;98579.66;;;33.00;25.07
19259;BME280;9763;48.780;9.212;2023-04-06T09:00:04;98567.88;;;33.06;25.26
19259;BME280;9763;48.780;9.212;2023-04-06T09:03:30;98568.94;;;33.05;24.95
19259;BME280;9763;48.780;9.212;2023-04-06T09:06:56;98564.19;;;33.12;24.51
19259;BME280;9763;48.780;9.212;2023-04-06T09:10:20;98556.81;;;33.08;24.24
19259;BME280;9763;48.780;9.212;2023-04-06T09:13:47;98561.06;;;33.04;24.05
19259;BME280;9763;48.780;9.212;2023-04-06T09:17:20;98557.19;;;33.00;23.88
19259;BME280;9763;48.780;9.212;2023-04-06T09:20:45;98553.38;;;33.12;23.70
19259;BME280;9763;48.780;9.212;2023-04-06T09:24:10;98565.13;;;33.46;23.25
19259;BME280;9763;48.780;9.212;2023-04-06T09:27:36;98554.75;;;33.72;23.13
19259;BME280;9763;48.780;9.212;2023-04-06T09:31:00;98561.84;;;34.06;22.60
19259;BME280;9763;48.780;9.212;2023-04-06T09:34:23;98551.34;;;34.26;22.44
19259;BME280;9763;48.780;9.212;2023-04-06T09:37:48;98559.00;;;34.29;22.58
19259;BME280;9763;48.780;9.212;2023-04-06T09:41:22;98559.88;;;34.35;21.88
19259;BME280;9763;48.780;9.212;2023-04-06T09:44:46;98562.16;;;34.43;21.91
19259;BME280;9763;48.780;9.212;2023-04-06T09:48:10;98553.97;;;34.60;21.35
19259;BME280;9763;48.780;9.212;2023-04-06T09:51:37;98549.75;;;34.69;20.95
19259;BME280;9763;48.780;9.212;2023-04-06T09:55:04;98539.06;;;34.79;21.10
19259;BME280;9763;48.780;9.212;2023-04-06T09:58:36;98543.09;;;34.98;20.55
19259;BME280;9763;48.780;9.212;2023-04-06T10:02:01;98548.91;;;34.85;20.71
19259;BME280;9763;48.780;9.212;2023-04-06T10:05:37;98542.28;;;34.76;20.64
19259;BME280;9763;48.780;9.212;2023-04-06T10:09:06;98546.22;;;34.68;20.06
19259;BME280;9763;48.780;9.212;2023-04-06T10:12:31;98538.50;;;34.77;20.31
19259;BME280;9763;48.780;9.212;2023-04-06T10:15:59;98525.84;;;35.10;19.75
19259;BME280;9763;48.780;9.212;2023-04-06T10:19:30;98531.63;;;35.18;19.45
19259;BME280;9763;48.780;9.212;2023-04-06T10:23:02;98527.16;;;35.29;19.37
19259;BME280;9763;48.780;9.212;2023-04-06T10:26:28;98529.97;;;35.39;19.22
19259;BME280;9763;48.780;9.212;2023-04-06T10:29:52;98518.78;;;35.62;19.13
19259;BME280;9763;48.780;9.212;2023-04-06T10:33:19;98525.91;;;35.68;18.86
19259;BME280;9763;48.780;9.212;2023-04-06T10:36:43;98530.63;;;35.78;18.72
19259;BME280;9763;48.780;9.212;2023-04-06T10:40:19;98528.28;;;35.60;18.48
19259;BME280;9763;48.780;9.212;2023-04-06T10:43:43;98523.50;;;35.72;18.82
19259;BME280;9763;48.780;9.212;2023-04-06T10:47:16;98522.25;;;35.85;18.14
19259;BME280;9763;48.780;9.212;2023-04-06T10:50:44;98510.84;;;35.88;18.05
19259;BME280;9763;48.780;9.212;2023-04-06T10:54:11;98504.38;;;35.94;18.16
19259;BME280;9763;48.780;9.212;2023-04-06T10:57:35;98510.94;;;35.66;18.06
19259;BME280;9763;48.780;9.212;2023-04-06T11:01:00;98516.28;;;35.56;18.02
19259;BME280;9763;48.780;9.212;2023-04-06T11:04:25;98517.72;;;35.10;17.67
19259;BME280;9763;48.780;9.212;2023-04-06T11:07:50;98509.19;;;34.57;17.58
19259;BME280;9763;48.780;9.212;2023-04-06T11:11:16;98500.50;;;34.17;17.70
19259;BME280;9763;48.780;9.212;2023-04-06T11:14:40;98502.78;;;34.08;18.07
19259;BME280;9763;48.780;9.212;2023-04-06T11:18:05;98508.06;;;33.98;17.69
19259;BME280;9763;48.780;9.212;2023-04-06T11:21:34;98501.91;;;33.86;17.61
19259;BME280;9763;48.780;9.212;2023-04-06T11:25:07;98492.19;;;34.07;17.76
19259;BME280;9763;48.780;9.212;2023-04-06T11:28:37;98484.16;;;34.12;17.68
19259;BME280;9763;48.780;9.212;2023-04-06T11:32:02;98477.78;;;33.84;17.56
19259;BME280;9763;48.780;9.212;2023-04-06T11:35:26;98469.84;;;33.78;17.84
19259;BME280;9763;48.780;9.212;2023-04-06T11:38:50;98467.03;;;33.89;17.73
19259;BME280;9763;48.780;9.212;2023-04-06T11:42:21;98466.88;;;34.18;17.61
19259;BME280;9763;48.780;9.212;2023-04-06T11:45:46;98460.50;;;34.46;17.46
19259;BME280;9763;48.780;9.212;2023-04-06T11:49:10;98462.75;;;34.32;17.47
19259;BME280;9763;48.780;9.212;2023-04-06T11:52:41;98450.31;;;34.14;17.58
19259;BME280;9763;48.780;9.212;2023-04-06T11:56:05;98455.16;;;34.12;17.91
19259;BME280;9763;48.780;9.212;2023-04-06T11:59:31;98455.53;;;33.82;18.11
19259;BME280;9763;48.780;9.212;2023-04-06T12:02:55;98446.91;;;33.35;18.41
19259;BME280;9763;48.780;9.212;2023-04-06T12:06:19;98446.78;;;32.85;18.44
19259;BME280;9763;48.780;9.212;2023-04-06T12:09:43;98456.03;;;32.09;18.69
19259;BME280;9763;48.780;9.212;2023-04-06T12:13:07;98456.06;;;30.72;18.41
19259;BME280;9763;48.780;9.212;2023-04-06T12:16:32;98448.22;;;29.48;19.40
19259;BME280;9763;48.780;9.212;2023-04-06T12:19:56;98445.16;;;29.13;19.53
19259;BME280;9763;48.780;9.212;2023-04-06T12:23:31;98441.31;;;29.02;20.02
19259;BME280;9763;48.780;9.212;2023-04-06T12:26:55;98439.72;;;28.88;19.91
19259;BME280;9763;48.780;9.212;2023-04-06T12:30:32;98433.38;;;28.83;19.98
19259;BME280;9763;48.780;9.212;2023-04-06T12:33:57;98426.50;;;28.87;20.31
19259;BME280;9763;48.780;9.212;2023-04-06T12:37:21;98429.16;;;28.93;19.96
19259;BME280;9763;48.780;9.212;2023-04-06T12:40:45;98428.28;;;28.99;20.39
19259;BME280;9763;48.780;9.212;2023-04-06T12:44:09;98425.50;;;29.13;19.37
19259;BME280;9763;48.780;9.212;2023-04-06T12:47:33;98417.50;;;29.37;19.40
19259;BME280;9763;48.780;9.212;2023-04-06T12:51:01;98422.66;;;29.64;18.87
19259;BME280;9763;48.780;9.212;2023-04-06T12:54:26;98418.59;;;29.98;19.03
19259;BME280;9763;48.780;9.212;2023-04-06T12:57:50;98400.59;;;30.17;18.64
19259;BME280;9763;48.780;9.212;2023-04-06T13:01:14;98411.88;;;30.25;18.02
19259;BME280;9763;48.780;9.212;2023-04-06T13:04:38;98404.84;;;30.42;18.06
19259;BME280;9763;48.780;9.212;2023-04-06T13:08:03;98407.41;;;30.67;17.45
19259;BME280;9763;48.780;9.212;2023-04-06T13:11:27;98401.88;;;30.92;17.42
19259;BME280;9763;48.780;9.212;2023-04-06T13:14:51;98394.22;;;30.77;17.21
19259;BME280;9763;48.780;9.212;2023-04-06T13:18:15;98389.41;;;29.77;17.57
19259;BME280;9763;48.780;9.212;2023-04-06T13:21:39;98400.63;;;28.61;18.91
19259;BME280;9763;48.780;9.212;2023-04-06T13:25:05;98400.47;;;27.72;19.32
19259;BME280;9763;48.780;9.212;2023-04-06T13:28:29;98397.81;;;26.93;19.34
19259;BME280;9763;48.780;9.212;2023-04-06T13:31:54;98398.00;;;26.30;20.11
19259;BME280;9763;48.780;9.212;2023-04-06T13:35:18;98394.94;;;25.99;20.01
19259;BME280;9763;48.780;9.212;2023-04-06T13:38:42;98387.47;;;25.88;20.26
19259;BME280;9763;48.780;9.212;2023-04-06T13:42:07;98388.91;;;25.56;20.36
19259;BME280;9763;48.780;9.212;2023-04-06T13:45:32;98386.38;;;25.20;20.99
19259;BME280;9763;48.780;9.212;2023-04-06T13:48:56;98387.13;;;24.71;20.69
19259;BME280;9763;48.780;9.212;2023-04-06T13:52:21;98388.06;;;24.27;21.03
19259;BME280;9763;48.780;9.212;2023-04-06T13:55:53;98384.59;;;23.97;21.97
19259;BME280;9763;48.780;9.212;2023-04-06T13:59:18;98380.56;;;23.72;22.20
19259;BME280;9763;48.780;9.212;2023-04-06T14:02:41;98387.13;;;23.47;22.44
19259;BME280;9763;48.780;9.212;2023-04-06T14:06:11;98387.44;;;23.14;22.41
19259;BME280;9763;48.780;9.212;2023-04-06T14:09:51;98387.22;;;22.78;22.33
19259;BME280;9763;48.780;9.212;2023-04-06T14:13:15;98390.50;;;22.57;22.54
19259;BME280;9763;48.780;9.212;2023-04-06T14:16:40;98387.22;;;22.47;23.14
19259;BME280;9763;48.780;9.212;2023-04-06T14:20:07;98389.16;;;22.31;22.83
19259;BME280;9763;48.780;9.212;2023-04-06T14:23:36;98376.50;;;22.02;22.63
19259;BME280;9763;48.780;9.212;2023-04-06T14:27:00;98383.53;;;21.78;22.71
19259;BME280;9763;48.780;9.212;2023-04-06T14:30:24;98381.91;;;21.69;23.15
19259;BME280;9763;48.780;9.212;2023-04-06T14:33:52;98386.91;;;21.56;22.93
19259;BME280;9763;48.780;9.212;2023-04-06T14:37:17;98384.44;;;21.46;23.06
19259;BME280;9763;48.780;9.212;2023-04-06T14:40:41;98373.84;;;21.30;22.63
19259;BME280;9763;48.780;9.212;2023-04-06T14:44:04;98373.50;;;21.09;22.69
19259;BME280;9763;48.780;9.212;2023-04-06T14:47:28;98383.47;;;20.99;23.49
19259;BME280;9763;48.780;9.212;2023-04-06T14:50:54;98373.19;;;20.96;23.78
19259;BME280;9763;48.780;9.212;2023-04-06T14:54:19;98366.72;;;20.98;23.73
19259;BME280;9763;48.780;9.212;2023-04-06T14:57:43;98370.69;;;21.02;23.60
19259;BME280;9763;48.780;9.212;2023-04-06T15:01:06;98367.03;;;20.95;23.42
19259;BME280;9763;48.780;9.212;2023-04-06T15:04:32;98368.53;;;20.90;23.80
19259;BME280;9763;48.780;9.212;2023-04-06T15:07:58;98367.03;;;20.79;23.52
19259;BME280;9763;48.780;9.212;2023-04-06T15:11:22;98370.00;;;20.68;23.63
19259;BME280;9763;48.780;9.212;2023-04-06T15:14:46;98365.38;;;20.62;24.10
19259;BME280;9763;48.780;9.212;2023-04-06T15:18:10;98364.69;;;20.60;24.39
19259;BME280;9763;48.780;9.212;2023-04-06T15:21:34;98365.69;;;20.59;23.65
19259;BME280;9763;48.780;9.212;2023-04-06T15:24:59;98361.69;;;20.55;23.80
19259;BME280;9763;48.780;9.212;2023-04-06T15:28:23;98363.03;;;20.51;24.33
19259;BME280;9763;48.780;9.212;2023-04-06T15:31:47;98359.38;;;20.43;24.15
19259;BME280;9763;48.780;9.212;2023-04-06T15:35:11;98370.47;;;20.47;23.70
19259;BME280;9763;48.780;9.212;2023-04-06T15:38:35;98367.16;;;20.45;23.95
19259;BME280;9763;48.780;9.212;2023-04-06T15:41:59;98363.66;;;20.36;23.82
19259;BME280;9763;48.780;9.212;2023-04-06T15:45:23;98365.44;;;20.28;24.16
19259;BME280;9763;48.780;9.212;2023-04-06T15:48:47;98359.09;;;20.12;24.36
19259;BME280;9763;48.780;9.212;2023-04-06T15:52:11;98368.19;;;20.10;24.58
19259;BME280;9763;48.780;9.212;2023-04-06T15:55:35;98365.03;;;20.06;24.15
19259;BME280;9763;48.780;9.212;2023-04-06T15:59:00;98368.50;;;20.07;24.48
19259;BME280;9763;48.780;9.212;2023-04-06T16:02:25;98373.97;;;20.05;24.14
19259;BME280;9763;48.780;9.212;2023-04-06T16:05:49;98365.69;;;20.00;24.74
19259;BME280;9763;48.780;9.212;2023-04-06T16:09:29;98367.31;;;19.93;24.31
19259;BME280;9763;48.780;9.212;2023-04-06T16:12:53;98376.22;;;19.84;24.32
19259;BME280;9763;48.780;9.212;2023-04-06T16:16:18;98362.41;;;19.72;24.94
19259;BME280;9763;48.780;9.212;2023-04-06T16:19:42;98373.53;;;19.76;25.05
19259;BME280;9763;48.780;9.212;2023-04-06T16:23:06;98374.97;;;19.70;25.13
19259;BME280;9763;48.780;9.212;2023-04-06T16:26:30;98376.16;;;19.68;25.13
19259;BME280;9763;48.780;9.212;2023-04-06T16:29:54;98373.28;;;19.61;24.83
19259;BME280;9763;48.780;9.212;2023-04-06T16:33:19;98378.69;;;19.52;25.22
19259;BME280;9763;48.780;9.212;2023-04-06T16:36:45;98377.63;;;19.44;24.89
19259;BME280;9763;48.780;9.212;2023-04-06T16:40:09;98381.06;;;19.37;24.89
19259;BME280;9763;48.780;9.212;2023-04-06T16:43:33;98377.53;;;19.28;24.99
19259;BME280;9763;48.780;9.212;2023-04-06T16:47:22;98384.75;;;19.18;24.78
19259;BME280;9763;48.780;9.212;2023-04-06T16:51:13;98383.19;;;19.08;25.44
19259;BME280;9763;48.780;9.212;2023-04-06T16:54:37;98380.09;;;18.94;25.83
19259;BME280;9763;48.780;9.212;2023-04-06T16:58:00;98387.44;;;18.83;25.69
19259;BME280;9763;48.780;9.212;2023-04-06T17:01:26;98376.09;;;18.73;25.76
19259;BME280;9763;48.780;9.212;2023-04-06T17:04:50;98382.97;;;18.65;25.82
19259;BME280;9763;48.780;9.212;2023-04-06T17:08:16;98392.38;;;18.50;25.50
19259;BME280;9763;48.780;9.212;2023-04-06T17:11:40;98392.94;;;18.26;25.84
19259;BME280;9763;48.780;9.212;2023-04-06T17:15:09;98400.72;;;18.00;26.18
19259;BME280;9763;48.780;9.212;2023-04-06T17:18:33;98391.28;;;17.71;25.99
19259;BME280;9763;48.780;9.212;2023-04-06T17:21:57;98402.03;;;17.50;26.26
19259;BME280;9763;48.780;9.212;2023-04-06T17:25:22;98399.56;;;17.29;26.66
19259;BME280;9763;48.780;9.212;2023-04-06T17:28:46;98406.41;;;17.12;26.56
19259;BME280;9763;48.780;9.212;2023-04-06T17:32:10;98401.56;;;16.98;26.57
19259;BME280;9763;48.780;9.212;2023-04-06T17:35:34;98403.78;;;16.83;26.41
19259;BME280;9763;48.780;9.212;2023-04-06T17:38:58;98402.13;;;16.73;26.78
19259;BME280;9763;48.780;9.212;2023-04-06T17:42:23;98406.41;;;16.64;26.33
19259;BME280;9763;48.780;9.212;2023-04-06T17:45:48;98403.59;;;16.56;26.45
19259;BME280;9763;48.780;9.212;2023-04-06T17:49:12;98412.06;;;16.50;26.67
19259;BME280;9763;48.780;9.212;2023-04-06T17:52:37;98418.81;;;16.43;26.60
19259;BME280;9763;48.780;9.212;2023-04-06T17:56:01;98415.91;;;16.36;26.40
19259;BME280;9763;48.780;9.212;2023-04-06T17:59:27;98424.22;;;16.32;27.12
19259;BME280;9763;48.780;9.212;2023-04-06T18:02:51;98429.06;;;16.27;26.61
19259;BME280;9763;48.780;9.212;2023-04-06T18:06:15;98422.53;;;16.21;26.84
19259;BME280;9763;48.780;9.212;2023-04-06T18:09:39;98437.91;;;16.16;27.11
19259;BME280;9763;48.780;9.212;2023-04-06T18:13:03;98430.41;;;16.11;26.99
19259;BME280;9763;48.780;9.212;2023-04-06T18:16:28;98431.78;;;16.06;27.53
19259;BME280;9763;48.780;9.212;2023-04-06T18:19:51;98444.50;;;16.01;26.74
19259;BME280;9763;48.780;9.212;2023-04-06T18:23:15;98431.72;;;15.96;27.61
19259;BME280;9763;48.780;9.212;2023-04-06T18:26:39;98439.22;;;15.91;27.32
19259;BME280;9763;48.780;9.212;2023-04-06T18:30:03;98443.91;;;15.88;27.36